Terminal Aerodrome Forecast
Issued by NWS

Home | Current Version | Previous Version | Text Only | Print | Product List | Glossary On
Versions: 1 2 3 4 5 6 7 8 9 10 11 12 13 14 15 16 17 18 19
000
FTUS43 KIND 260200 AAA
TAFBMG
TAF AMD
KBMG 260227Z 2602/2624 02014G20KT 5SM -RASN BR OVC005
     FM260300 01013G24KT 3SM -SN OVC007
     FM260800 35013G24KT P6SM OVC010
     FM261800 30006KT P6SM SCT025 BKN150
      AMD LTD TO CLD VIS AND WIND TIL 261400=

USA.gov is the U.S. government's official web portal to all federal, state and local government web resources and services.